sensor_id;sensor_type;location;lat;lon;timestamp;pressure;altitude;pressure_sealevel;temperature;humidity
8039;BME280;4062;49.844;8.120;2023-04-26T00:00:21;99464.38;;;14.63;57.48
8039;BME280;4062;49.844;8.120;2023-04-26T00:02:22;99469.72;;;14.63;57.45
8039;BME280;4062;49.844;8.120;2023-04-26T00:04:24;99464.38;;;14.63;57.62
8039;BME280;4062;49.844;8.120;2023-04-26T00:06:25;99464.38;;;14.63;57.54
8039;BME280;4062;49.844;8.120;2023-04-26T00:08:27;99460.84;;;14.63;57.50
8039;BME280;4062;49.844;8.120;2023-04-26T00:10:28;99459.06;;;14.63;57.49
8039;BME280;4062;49.844;8.120;2023-04-26T00:12:30;99461.72;;;14.63;57.50
8039;BME280;4062;49.844;8.120;2023-04-26T00:14:31;99463.50;;;14.63;57.42
8039;BME280;4062;49.844;8.120;2023-04-26T00:16:32;99460.84;;;14.63;57.57
8039;BME280;4062;49.844;8.120;2023-04-26T00:18:33;99461.72;;;14.63;57.55
8039;BME280;4062;49.844;8.120;2023-04-26T00:20:35;99460.00;;;14.62;57.50
8039;BME280;4062;49.844;8.120;2023-04-26T00:22:36;99461.78;;;14.62;57.54
8039;BME280;4062;49.844;8.120;2023-04-26T00:24:38;99460.00;;;14.62;57.48
8039;BME280;4062;49.844;8.120;2023-04-26T00:26:39;99465.31;;;14.62;57.52
8039;BME280;4062;49.844;8.120;2023-04-26T00:28:40;99462.66;;;14.62;57.54
8039;BME280;4062;49.844;8.120;2023-04-26T00:30:42;99476.81;;;14.63;57.55
8039;BME280;4062;49.844;8.120;2023-04-26T00:32:47;99468.81;;;14.63;57.54
8039;BME280;4062;49.844;8.120;2023-04-26T00:34:48;99468.81;;;14.63;57.62
8039;BME280;4062;49.844;8.120;2023-04-26T00:36:52;99466.16;;;14.63;57.49
8039;BME280;4062;49.844;8.120;2023-04-26T00:38:53;99467.97;;;14.62;57.41
8039;BME280;4062;49.844;8.120;2023-04-26T00:40:54;99466.16;;;14.63;57.47
8039;BME280;4062;49.844;8.120;2023-04-26T00:42:58;99467.97;;;14.62;57.49
8039;BME280;4062;49.844;8.120;2023-04-26T00:45:00;99462.66;;;14.62;57.49
8039;BME280;4062;49.844;8.120;2023-04-26T00:47:02;99466.16;;;14.63;57.59
8039;BME280;4062;49.844;8.120;2023-04-26T00:49:03;99468.81;;;14.63;57.40
8039;BME280;4062;49.844;8.120;2023-04-26T00:51:05;99467.97;;;14.62;57.51
8039;BME280;4062;49.844;8.120;2023-04-26T00:53:07;99459.13;;;14.62;57.55
8039;BME280;4062;49.844;8.120;2023-04-26T00:55:09;99467.97;;;14.62;57.65
8039;BME280;4062;49.844;8.120;2023-04-26T00:57:11;99461.84;;;14.60;57.54
8039;BME280;4062;49.844;8.120;2023-04-26T00:59:13;99464.50;;;14.60;57.56
8039;BME280;4062;49.844;8.120;2023-04-26T01:01:14;99472.41;;;14.62;57.64
8039;BME280;4062;49.844;8.120;2023-04-26T01:03:16;99467.09;;;14.62;57.50
8039;BME280;4062;49.844;8.120;2023-04-26T01:05:17;99469.75;;;14.62;57.61
8039;BME280;4062;49.844;8.120;2023-04-26T01:07:19;99470.66;;;14.61;57.50
8039;BME280;4062;49.844;8.120;2023-04-26T01:09:20;99467.97;;;14.62;57.51
8039;BME280;4062;49.844;8.120;2023-04-26T01:11:35;99472.41;;;14.62;57.48
8039;BME280;4062;49.844;8.120;2023-04-26T01:13:37;99470.66;;;14.61;57.51
8039;BME280;4062;49.844;8.120;2023-04-26T01:15:45;99469.75;;;14.62;57.51
8039;BME280;4062;49.844;8.120;2023-04-26T01:17:47;99472.41;;;14.62;57.52
8039;BME280;4062;49.844;8.120;2023-04-26T01:19:49;99467.16;;;14.60;57.50
8039;BME280;4062;49.844;8.120;2023-04-26T01:21:50;99468.00;;;14.61;57.56
8039;BME280;4062;49.844;8.120;2023-04-26T01:23:52;99469.81;;;14.60;57.52
8039;BME280;4062;49.844;8.120;2023-04-26T01:25:53;99462.69;;;14.61;57.67
8039;BME280;4062;49.844;8.120;2023-04-26T01:27:56;99464.50;;;14.60;57.52
8039;BME280;4062;49.844;8.120;2023-04-26T01:29:59;99458.31;;;14.60;57.52
8039;BME280;4062;49.844;8.120;2023-04-26T01:32:01;99460.09;;;14.59;57.63
8039;BME280;4062;49.844;8.120;2023-04-26T01:34:03;99462.69;;;14.61;57.53
8039;BME280;4062;49.844;8.120;2023-04-26T01:36:08;99459.19;;;14.60;57.57
8039;BME280;4062;49.844;8.120;2023-04-26T01:38:10;99464.50;;;14.60;57.58
8039;BME280;4062;49.844;8.120;2023-04-26T01:40:12;99461.84;;;14.60;57.54
8039;BME280;4062;49.844;8.120;2023-04-26T01:42:13;99460.97;;;14.60;57.65
8039;BME280;4062;49.844;8.120;2023-04-26T01:44:15;99460.97;;;14.60;57.51
8039;BME280;4062;49.844;8.120;2023-04-26T01:46:16;99458.31;;;14.60;57.46
8039;BME280;4062;49.844;8.120;2023-04-26T01:48:17;99454.72;;;14.61;57.56
8039;BME280;4062;49.844;8.120;2023-04-26T01:50:18;99463.63;;;14.60;57.58
8039;BME280;4062;49.844;8.120;2023-04-26T01:52:21;99460.97;;;14.60;57.51
8039;BME280;4062;49.844;8.120;2023-04-26T01:54:22;99458.31;;;14.60;57.53
8039;BME280;4062;49.844;8.120;2023-04-26T01:56:24;99454.78;;;14.59;57.61
8039;BME280;4062;49.844;8.120;2023-04-26T01:58:25;99462.75;;;14.59;57.57
8039;BME280;4062;49.844;8.120;2023-04-26T02:00:28;99466.28;;;14.60;57.63
8039;BME280;4062;49.844;8.120;2023-04-26T02:02:29;99468.94;;;14.60;57.58
8039;BME280;4062;49.844;8.120;2023-04-26T02:04:31;99465.44;;;14.59;57.60
8039;BME280;4062;49.844;8.120;2023-04-26T02:06:32;99465.44;;;14.59;57.47
8039;BME280;4062;49.844;8.120;2023-04-26T02:08:34;99468.09;;;14.59;57.51
8039;BME280;4062;49.844;8.120;2023-04-26T02:10:36;99470.75;;;14.59;57.50
8039;BME280;4062;49.844;8.120;2023-04-26T02:12:37;99465.44;;;14.59;57.61
8039;BME280;4062;49.844;8.120;2023-04-26T02:14:38;99465.44;;;14.59;57.64
8039;BME280;4062;49.844;8.120;2023-04-26T02:16:40;99462.75;;;14.59;57.52
8039;BME280;4062;49.844;8.120;2023-04-26T02:18:41;99460.09;;;14.59;57.54
8039;BME280;4062;49.844;8.120;2023-04-26T02:20:43;99467.16;;;14.60;57.59
8039;BME280;4062;49.844;8.120;2023-04-26T02:22:45;99465.44;;;14.59;57.51
8039;BME280;4062;49.844;8.120;2023-04-26T02:24:50;99461.91;;;14.59;57.66
8039;BME280;4062;49.844;8.120;2023-04-26T02:26:52;99460.97;;;14.60;57.72
8039;BME280;4062;49.844;8.120;2023-04-26T02:28:54;99462.75;;;14.59;57.58
8039;BME280;4062;49.844;8.120;2023-04-26T02:30:55;99463.69;;;14.58;57.55
8039;BME280;4062;49.844;8.120;2023-04-26T02:32:57;99462.75;;;14.59;57.72
8039;BME280;4062;49.844;8.120;2023-04-26T02:34:58;99461.03;;;14.58;57.70
8039;BME280;4062;49.844;8.120;2023-04-26T02:37:00;99461.03;;;14.58;57.57
8039;BME280;4062;49.844;8.120;2023-04-26T02:39:01;99453.94;;;14.59;57.64
8039;BME280;4062;49.844;8.120;2023-04-26T02:41:03;99462.75;;;14.59;57.68
8039;BME280;4062;49.844;8.120;2023-04-26T02:43:05;99453.94;;;14.59;57.64
8039;BME280;4062;49.844;8.120;2023-04-26T02:45:07;99455.72;;;14.58;57.64
8039;BME280;4062;49.844;8.120;2023-04-26T02:47:09;99459.25;;;14.59;57.63
8039;BME280;4062;49.844;8.120;2023-04-26T02:49:11;99456.59;;;14.59;57.63
8039;BME280;4062;49.844;8.120;2023-04-26T02:51:12;99461.03;;;14.58;57.66
8039;BME280;4062;49.844;8.120;2023-04-26T02:53:14;99458.38;;;14.58;57.63
8039;BME280;4062;49.844;8.120;2023-04-26T02:55:17;99454.88;;;14.58;57.56
8039;BME280;4062;49.844;8.120;2023-04-26T02:57:18;99454.88;;;14.58;57.73
8039;BME280;4062;49.844;8.120;2023-04-26T02:59:19;99454.88;;;14.58;57.53
8039;BME280;4062;49.844;8.120;2023-04-26T03:01:22;99456.63;;;14.57;57.59
8039;BME280;4062;49.844;8.120;2023-04-26T03:03:24;99457.53;;;14.58;57.58
8039;BME280;4062;49.844;8.120;2023-04-26T03:05:26;99455.72;;;14.58;57.63
8039;BME280;4062;49.844;8.120;2023-04-26T03:07:27;99454.88;;;14.58;57.59
8039;BME280;4062;49.844;8.120;2023-04-26T03:09:28;99455.78;;;14.57;57.63
8039;BME280;4062;49.844;8.120;2023-04-26T03:11:30;99451.31;;;14.57;57.56
8039;BME280;4062;49.844;8.120;2023-04-26T03:13:31;99451.31;;;14.57;57.56
8039;BME280;4062;49.844;8.120;2023-04-26T03:15:33;99446.88;;;14.58;57.54
8039;BME280;4062;49.844;8.120;2023-04-26T03:17:34;99446.00;;;14.57;57.53
8039;BME280;4062;49.844;8.120;2023-04-26T03:19:37;99452.19;;;14.58;57.67
8039;BME280;4062;49.844;8.120;2023-04-26T03:21:39;99453.97;;;14.57;57.62
8039;BME280;4062;49.844;8.120;2023-04-26T03:23:41;99444.22;;;14.58;57.60
8039;BME280;4062;49.844;8.120;2023-04-26T03:25:43;99449.53;;;14.58;57.67
8039;BME280;4062;49.844;8.120;2023-04-26T03:27:44;99451.31;;;14.57;57.68
8039;BME280;4062;49.844;8.120;2023-04-26T03:29:45;99456.63;;;14.57;57.56
8039;BME280;4062;49.844;8.120;2023-04-26T03:31:46;99453.97;;;14.57;57.69
8039;BME280;4062;49.844;8.120;2023-04-26T03:33:48;99451.31;;;14.57;57.50
8039;BME280;4062;49.844;8.120;2023-04-26T03:35:49;99458.44;;;14.57;57.71
8039;BME280;4062;49.844;8.120;2023-04-26T03:37:51;99454.91;;;14.56;57.70
8039;BME280;4062;49.844;8.120;2023-04-26T03:39:52;99462.84;;;14.58;57.54
8039;BME280;4062;49.844;8.120;2023-04-26T03:41:56;99457.56;;;14.56;57.79
8039;BME280;4062;49.844;8.120;2023-04-26T03:43:57;99456.63;;;14.57;57.58
8039;BME280;4062;49.844;8.120;2023-04-26T03:46:00;99452.25;;;14.56;57.64
8039;BME280;4062;49.844;8.120;2023-04-26T03:48:01;99450.47;;;14.57;57.60
8039;BME280;4062;49.844;8.120;2023-04-26T03:50:04;99447.81;;;14.57;57.62
8039;BME280;4062;49.844;8.120;2023-04-26T03:52:05;99445.16;;;14.57;57.60
8039;BME280;4062;49.844;8.120;2023-04-26T03:54:06;99456.63;;;14.57;57.58
8039;BME280;4062;49.844;8.120;2023-04-26T03:56:08;99445.16;;;14.57;57.73
8039;BME280;4062;49.844;8.120;2023-04-26T03:58:10;99444.25;;;14.56;57.59
8039;BME280;4062;49.844;8.120;2023-04-26T04:00:13;99438.94;;;14.56;57.68
8039;BME280;4062;49.844;8.120;2023-04-26T04:02:17;99438.09;;;14.56;57.63
8039;BME280;4062;49.844;8.120;2023-04-26T04:04:18;99442.50;;;14.57;57.52
8039;BME280;4062;49.844;8.120;2023-04-26T04:06:20;99443.41;;;14.56;57.60
8039;BME280;4062;49.844;8.120;2023-04-26T04:08:21;99444.25;;;14.56;57.62
8039;BME280;4062;49.844;8.120;2023-04-26T04:10:23;99443.41;;;14.56;57.75
8039;BME280;4062;49.844;8.120;2023-04-26T04:12:24;99443.41;;;14.56;57.66
8039;BME280;4062;49.844;8.120;2023-04-26T04:14:28;99444.25;;;14.56;57.55
8039;BME280;4062;49.844;8.120;2023-04-26T04:16:29;99443.41;;;14.56;57.70
8039;BME280;4062;49.844;8.120;2023-04-26T04:18:31;99446.06;;;14.56;57.68
8039;BME280;4062;49.844;8.120;2023-04-26T04:20:33;99443.41;;;14.56;57.60
8039;BME280;4062;49.844;8.120;2023-04-26T04:22:35;99443.41;;;14.56;57.61
8039;BME280;4062;49.844;8.120;2023-04-26T04:24:36;99450.47;;;14.57;57.56
8039;BME280;4062;49.844;8.120;2023-04-26T04:26:38;99451.38;;;14.56;57.71
8039;BME280;4062;49.844;8.120;2023-04-26T04:28:39;99447.84;;;14.55;57.62
8039;BME280;4062;49.844;8.120;2023-04-26T04:30:45;99454.91;;;14.56;57.57
8039;BME280;4062;49.844;8.120;2023-04-26T04:32:47;99453.16;;;14.55;57.73
8039;BME280;4062;49.844;8.120;2023-04-26T04:34:50;99459.38;;;14.56;57.74
8039;BME280;4062;49.844;8.120;2023-04-26T04:36:54;99458.47;;;14.55;57.62
8039;BME280;4062;49.844;8.120;2023-04-26T04:38:55;99464.69;;;14.56;57.53
8039;BME280;4062;49.844;8.120;2023-04-26T04:40:57;99470.00;;;14.56;57.70
8039;BME280;4062;49.844;8.120;2023-04-26T04:42:59;99467.34;;;14.56;57.63
8039;BME280;4062;49.844;8.120;2023-04-26T04:45:06;99480.63;;;14.56;57.71
8039;BME280;4062;49.844;8.120;2023-04-26T04:47:09;99479.75;;;14.55;57.56
8039;BME280;4062;49.844;8.120;2023-04-26T04:49:11;99493.94;;;14.56;57.59
8039;BME280;4062;49.844;8.120;2023-04-26T04:51:13;99491.28;;;14.56;57.82
8039;BME280;4062;49.844;8.120;2023-04-26T04:53:14;99490.38;;;14.55;57.68
8039;BME280;4062;49.844;8.120;2023-04-26T04:55:16;99493.94;;;14.56;57.73
8039;BME280;4062;49.844;8.120;2023-04-26T04:57:18;99493.03;;;14.55;57.62
8039;BME280;4062;49.844;8.120;2023-04-26T04:59:22;99493.94;;;14.56;57.68
8039;BME280;4062;49.844;8.120;2023-04-26T05:01:23;99493.94;;;14.56;57.55
8039;BME280;4062;49.844;8.120;2023-04-26T05:03:28;99493.03;;;14.55;57.86
8039;BME280;4062;49.844;8.120;2023-04-26T05:05:29;99497.50;;;14.54;57.64
8039;BME280;4062;49.844;8.120;2023-04-26T05:07:31;99498.38;;;14.55;57.68
8039;BME280;4062;49.844;8.120;2023-04-26T05:09:33;99498.38;;;14.55;57.62
8039;BME280;4062;49.844;8.120;2023-04-26T05:11:34;99494.84;;;14.54;57.56
8039;BME280;4062;49.844;8.120;2023-04-26T05:13:37;99501.03;;;14.55;57.70
8039;BME280;4062;49.844;8.120;2023-04-26T05:15:39;99495.69;;;14.55;57.64
8039;BME280;4062;49.844;8.120;2023-04-26T05:17:41;99497.50;;;14.54;57.64
8039;BME280;4062;49.844;8.120;2023-04-26T05:19:52;99495.69;;;14.55;57.63
8039;BME280;4062;49.844;8.120;2023-04-26T05:21:54;99506.34;;;14.55;57.76
8039;BME280;4062;49.844;8.120;2023-04-26T05:23:57;99503.69;;;14.55;57.57
8039;BME280;4062;49.844;8.120;2023-04-26T05:26:02;99503.69;;;14.55;57.67
8039;BME280;4062;49.844;8.120;2023-04-26T05:28:34;99508.16;;;14.54;57.70
8039;BME280;4062;49.844;8.120;2023-04-26T05:30:52;99504.63;;;14.54;57.62
8039;BME280;4062;49.844;8.120;2023-04-26T05:33:13;99511.66;;;14.55;57.68
8039;BME280;4062;49.844;8.120;2023-04-26T05:35:31;99512.63;;;14.54;57.84
8039;BME280;4062;49.844;8.120;2023-04-26T05:37:33;99507.28;;;14.54;57.57
8039;BME280;4062;49.844;8.120;2023-04-26T05:39:36;99510.81;;;14.54;57.60
8039;BME280;4062;49.844;8.120;2023-04-26T05:41:37;99511.66;;;14.55;57.56
8039;BME280;4062;49.844;8.120;2023-04-26T05:43:39;99513.47;;;14.54;57.74
8039;BME280;4062;49.844;8.120;2023-04-26T05:45:50;99507.28;;;14.54;57.69
8039;BME280;4062;49.844;8.120;2023-04-26T05:47:53;99511.66;;;14.55;57.69
8039;BME280;4062;49.844;8.120;2023-04-26T05:49:56;99507.28;;;14.54;57.67
8039;BME280;4062;49.844;8.120;2023-04-26T05:52:00;99510.81;;;14.54;57.74
8039;BME280;4062;49.844;8.120;2023-04-26T05:54:02;99516.97;;;14.55;57.68
8039;BME280;4062;49.844;8.120;2023-04-26T05:56:04;99527.59;;;14.55;57.67
8039;BME280;4062;49.844;8.120;2023-04-26T05:58:09;99529.41;;;14.54;57.71
8039;BME280;4062;49.844;8.120;2023-04-26T06:00:11;99532.06;;;14.54;57.65
8039;BME280;4062;49.844;8.120;2023-04-26T06:02:21;99537.41;;;14.54;57.62
8039;BME280;4062;49.844;8.120;2023-04-26T06:04:23;99537.41;;;14.54;57.68
8039;BME280;4062;49.844;8.120;2023-04-26T06:06:37;99530.34;;;14.53;57.64
8039;BME280;4062;49.844;8.120;2023-04-26T06:08:38;99545.38;;;14.54;57.68
8039;BME280;4062;49.844;8.120;2023-04-26T06:10:40;99548.88;;;14.55;57.76
8039;BME280;4062;49.844;8.120;2023-04-26T06:12:44;99548.03;;;14.54;57.71
8039;BME280;4062;49.844;8.120;2023-04-26T06:14:47;99549.84;;;14.54;57.74
8039;BME280;4062;49.844;8.120;2023-04-26T06:16:55;99546.22;;;14.55;57.69
8039;BME280;4062;49.844;8.120;2023-04-26T06:18:57;99545.38;;;14.54;57.56
8039;BME280;4062;49.844;8.120;2023-04-26T06:20:59;99552.50;;;14.54;57.68
8039;BME280;4062;49.844;8.120;2023-04-26T06:23:00;99545.38;;;14.54;57.54
8039;BME280;4062;49.844;8.120;2023-04-26T06:25:02;99550.69;;;14.54;57.67
8039;BME280;4062;49.844;8.120;2023-04-26T06:27:05;99550.69;;;14.54;57.67
8039;BME280;4062;49.844;8.120;2023-04-26T06:29:06;99542.72;;;14.54;57.68
8039;BME280;4062;49.844;8.120;2023-04-26T06:31:07;99545.38;;;14.54;57.72
8039;BME280;4062;49.844;8.120;2023-04-26T06:33:10;99548.03;;;14.54;57.63
8039;BME280;4062;49.844;8.120;2023-04-26T06:35:13;99548.88;;;14.55;57.64
8039;BME280;4062;49.844;8.120;2023-04-26T06:37:15;99546.22;;;14.55;57.54
8039;BME280;4062;49.844;8.120;2023-04-26T06:39:17;99544.53;;;14.54;57.57
8039;BME280;4062;49.844;8.120;2023-04-26T06:41:19;99546.22;;;14.55;57.66
8039;BME280;4062;49.844;8.120;2023-04-26T06:43:23;99543.56;;;14.55;57.55
8039;BME280;4062;49.844;8.120;2023-04-26T06:45:37;99539.13;;;14.56;57.67
8039;BME280;4062;49.844;8.120;2023-04-26T06:47:38;99540.91;;;14.55;57.51
8039;BME280;4062;49.844;8.120;2023-04-26T06:49:40;99544.44;;;14.56;57.54
8039;BME280;4062;49.844;8.120;2023-04-26T06:51:41;99543.56;;;14.55;57.49
8039;BME280;4062;49.844;8.120;2023-04-26T06:53:43;99539.97;;;14.56;57.43
8039;BME280;4062;49.844;8.120;2023-04-26T06:55:47;99549.75;;;14.56;57.49
8039;BME280;4062;49.844;8.120;2023-04-26T06:57:49;99546.22;;;14.55;57.64
8039;BME280;4062;49.844;8.120;2023-04-26T06:59:51;99543.56;;;14.55;57.53
8039;BME280;4062;49.844;8.120;2023-04-26T07:01:52;99545.31;;;14.56;57.57
8039;BME280;4062;49.844;8.120;2023-04-26T07:04:18;99540.91;;;14.55;57.51
8039;BME280;4062;49.844;8.120;2023-04-26T07:06:20;99539.97;;;14.56;57.52
8039;BME280;4062;49.844;8.120;2023-04-26T07:08:22;99549.75;;;14.56;57.46
8039;BME280;4062;49.844;8.120;2023-04-26T07:10:23;99550.63;;;14.56;57.61
8039;BME280;4062;49.844;8.120;2023-04-26T07:12:26;99556.81;;;14.57;57.47
8039;BME280;4062;49.844;8.120;2023-04-26T07:14:27;99550.63;;;14.56;57.47
8039;BME280;4062;49.844;8.120;2023-04-26T07:16:28;99547.09;;;14.56;57.53
8039;BME280;4062;49.844;8.120;2023-04-26T07:18:30;99549.75;;;14.56;57.53
8039;BME280;4062;49.844;8.120;2023-04-26T07:20:32;99540.88;;;14.57;57.49
8039;BME280;4062;49.844;8.120;2023-04-26T07:22:33;99539.97;;;14.56;57.50
8039;BME280;4062;49.844;8.120;2023-04-26T07:24:34;99545.31;;;14.56;57.55
8039;BME280;4062;49.844;8.120;2023-04-26T07:26:35;99539.94;;;14.58;57.47
8039;BME280;4062;49.844;8.120;2023-04-26T07:28:37;99543.53;;;14.57;57.55
8039;BME280;4062;49.844;8.120;2023-04-26T07:30:38;99541.72;;;14.57;57.45
8039;BME280;4062;49.844;8.120;2023-04-26T07:32:40;99536.41;;;14.57;57.42
8039;BME280;4062;49.844;8.120;2023-04-26T07:34:41;99534.63;;;14.58;57.42
8039;BME280;4062;49.844;8.120;2023-04-26T07:36:46;99538.94;;;14.60;57.46
8039;BME280;4062;49.844;8.120;2023-04-26T07:38:51;99538.06;;;14.60;57.50
8039;BME280;4062;49.844;8.120;2023-04-26T07:40:54;99535.41;;;14.60;57.37
8039;BME280;4062;49.844;8.120;2023-04-26T07:42:56;99538.06;;;14.60;57.47
8039;BME280;4062;49.844;8.120;2023-04-26T07:44:58;99534.56;;;14.59;57.51
8039;BME280;4062;49.844;8.120;2023-04-26T07:47:03;99543.38;;;14.60;57.51
8039;BME280;4062;49.844;8.120;2023-04-26T07:49:04;99539.88;;;14.59;57.39
8039;BME280;4062;49.844;8.120;2023-04-26T07:51:10;99541.53;;;14.62;57.48
8039;BME280;4062;49.844;8.120;2023-04-26T07:53:11;99539.88;;;14.59;57.34
8039;BME280;4062;49.844;8.120;2023-04-26T07:55:13;99532.75;;;14.60;57.43
8039;BME280;4062;49.844;8.120;2023-04-26T07:57:14;99537.22;;;14.59;57.43
8039;BME280;4062;49.844;8.120;2023-04-26T07:59:16;99535.41;;;14.60;57.44
8039;BME280;4062;49.844;8.120;2023-04-26T08:01:17;99535.38;;;14.61;57.37
8039;BME280;4062;49.844;8.120;2023-04-26T08:03:22;99532.75;;;14.60;57.43
8039;BME280;4062;49.844;8.120;2023-04-26T08:05:23;99536.28;;;14.60;57.40
8039;BME280;4062;49.844;8.120;2023-04-26T08:07:24;99540.72;;;14.60;57.40
8039;BME280;4062;49.844;8.120;2023-04-26T08:09:28;99541.53;;;14.62;57.35
8039;BME280;4062;49.844;8.120;2023-04-26T08:11:29;99545.13;;;14.61;57.40
8039;BME280;4062;49.844;8.120;2023-04-26T08:13:31;99544.19;;;14.62;57.39
8039;BME280;4062;49.844;8.120;2023-04-26T08:15:32;99540.63;;;14.63;57.49
8039;BME280;4062;49.844;8.120;2023-04-26T08:17:42;99540.63;;;14.63;57.40
8039;BME280;4062;49.844;8.120;2023-04-26T08:19:43;99542.44;;;14.62;57.38
8039;BME280;4062;49.844;8.120;2023-04-26T08:21:45;99548.59;;;14.63;57.34
8039;BME280;4062;49.844;8.120;2023-04-26T08:23:46;99541.53;;;14.62;57.41
8039;BME280;4062;49.844;8.120;2023-04-26T08:25:51;99539.78;;;14.62;57.35
8039;BME280;4062;49.844;8.120;2023-04-26T08:27:52;99545.94;;;14.63;57.41
8039;BME280;4062;49.844;8.120;2023-04-26T08:29:53;99545.94;;;14.63;57.45
8039;BME280;4062;49.844;8.120;2023-04-26T08:31:55;99544.19;;;14.62;57.37
8039;BME280;4062;49.844;8.120;2023-04-26T08:33:56;99545.09;;;14.62;57.49
8039;BME280;4062;49.844;8.120;2023-04-26T08:35:58;99548.59;;;14.63;57.35
8039;BME280;4062;49.844;8.120;2023-04-26T08:38:01;99533.56;;;14.62;57.41
8039;BME280;4062;49.844;8.120;2023-04-26T08:40:04;99538.88;;;14.62;57.35
8039;BME280;4062;49.844;8.120;2023-04-26T08:42:16;99529.13;;;14.62;57.39
8039;BME280;4062;49.844;8.120;2023-04-26T08:44:24;99533.53;;;14.63;57.45
8039;BME280;4062;49.844;8.120;2023-04-26T08:46:26;99531.81;;;14.61;57.25
8039;BME280;4062;49.844;8.120;2023-04-26T08:48:33;99533.56;;;14.62;57.48
8039;BME280;4062;49.844;8.120;2023-04-26T08:50:38;99535.31;;;14.63;57.50
8039;BME280;4062;49.844;8.120;2023-04-26T08:52:49;99525.59;;;14.62;57.28
8039;BME280;4062;49.844;8.120;2023-04-26T08:54:51;99523.81;;;14.62;57.39
8039;BME280;4062;49.844;8.120;2023-04-26T08:56:54;99529.13;;;14.62;57.35
8039;BME280;4062;49.844;8.120;2023-04-26T08:58:59;99534.44;;;14.62;57.50
8039;BME280;4062;49.844;8.120;2023-04-26T09:01:01;99529.13;;;14.62;57.41
8039;BME280;4062;49.844;8.120;2023-04-26T09:03:03;99535.31;;;14.63;57.47
8039;BME280;4062;49.844;8.120;2023-04-26T09:05:06;99534.44;;;14.62;57.30
8039;BME280;4062;49.844;8.120;2023-04-26T09:07:08;99534.44;;;14.62;57.15
8039;BME280;4062;49.844;8.120;2023-04-26T09:09:13;99536.22;;;14.62;57.43
8039;BME280;4062;49.844;8.120;2023-04-26T09:11:18;99531.81;;;14.61;57.45
8039;BME280;4062;49.844;8.120;2023-04-26T09:13:19;99536.22;;;14.62;57.44
8039;BME280;4062;49.844;8.120;2023-04-26T09:15:22;99529.13;;;14.62;57.36
8039;BME280;4062;49.844;8.120;2023-04-26T09:17:34;99533.53;;;14.63;57.47
8039;BME280;4062;49.844;8.120;2023-04-26T09:19:40;99531.78;;;14.62;57.50
8039;BME280;4062;49.844;8.120;2023-04-26T09:21:45;99531.72;;;14.64;57.28
8039;BME280;4062;49.844;8.120;2023-04-26T09:24:00;99524.66;;;14.63;57.29
8039;BME280;4062;49.844;8.120;2023-04-26T09:26:18;99526.47;;;14.62;57.32
8039;BME280;4062;49.844;8.120;2023-04-26T09:28:21;99529.97;;;14.63;57.40
8039;BME280;4062;49.844;8.120;2023-04-26T09:30:24;99529.97;;;14.63;57.40
8039;BME280;4062;49.844;8.120;2023-04-26T09:32:25;99525.59;;;14.62;57.32
8039;BME280;4062;49.844;8.120;2023-04-26T09:34:27;99519.34;;;14.63;57.42
8039;BME280;4062;49.844;8.120;2023-04-26T09:36:29;99513.19;;;14.62;57.43
8039;BME280;4062;49.844;8.120;2023-04-26T09:38:41;99515.84;;;14.62;57.29
8039;BME280;4062;49.844;8.120;2023-04-26T09:40:49;99509.63;;;14.62;57.35
8039;BME280;4062;49.844;8.120;2023-04-26T09:43:12;99514.94;;;14.62;57.49
8039;BME280;4062;49.844;8.120;2023-04-26T09:45:14;99504.38;;;14.60;57.42
8039;BME280;4062;49.844;8.120;2023-04-26T09:47:17;99515.84;;;14.62;57.39
8039;BME280;4062;49.844;8.120;2023-04-26T09:49:21;99506.97;;;14.62;57.35
8039;BME280;4062;49.844;8.120;2023-04-26T09:51:23;99506.13;;;14.61;57.42
8039;BME280;4062;49.844;8.120;2023-04-26T09:53:45;99510.53;;;14.62;57.35
8039;BME280;4062;49.844;8.120;2023-04-26T09:55:50;99512.28;;;14.62;57.32
8039;BME280;4062;49.844;8.120;2023-04-26T09:57:51;99512.28;;;14.62;57.37
8039;BME280;4062;49.844;8.120;2023-04-26T09:59:53;99511.38;;;14.63;57.40
8039;BME280;4062;49.844;8.120;2023-04-26T10:01:56;99514.03;;;14.63;57.44
8039;BME280;4062;49.844;8.120;2023-04-26T10:04:00;99511.38;;;14.63;57.28
8039;BME280;4062;49.844;8.120;2023-04-26T10:06:12;99507.84;;;14.62;57.29
8039;BME280;4062;49.844;8.120;2023-04-26T10:08:14;99507.84;;;14.62;57.36
8039;BME280;4062;49.844;8.120;2023-04-26T10:10:18;99506.97;;;14.62;57.38
8039;BME280;4062;49.844;8.120;2023-04-26T10:12:25;99508.72;;;14.63;57.48
8039;BME280;4062;49.844;8.120;2023-04-26T10:14:27;99499.91;;;14.61;57.43
8039;BME280;4062;49.844;8.120;2023-04-26T10:16:32;99501.66;;;14.62;57.46
8039;BME280;4062;49.844;8.120;2023-04-26T10:18:33;99505.25;;;14.61;57.38
8039;BME280;4062;49.844;8.120;2023-04-26T10:20:39;99512.28;;;14.62;57.33
8039;BME280;4062;49.844;8.120;2023-04-26T10:22:52;99506.97;;;14.62;57.38
8039;BME280;4062;49.844;8.120;2023-04-26T10:24:56;99510.53;;;14.62;57.25
8039;BME280;4062;49.844;8.120;2023-04-26T10:26:57;99508.72;;;14.63;57.41
8039;BME280;4062;49.844;8.120;2023-04-26T10:28:59;99503.38;;;14.63;57.43
8039;BME280;4062;49.844;8.120;2023-04-26T10:31:00;99501.66;;;14.62;57.39
8039;BME280;4062;49.844;8.120;2023-04-26T10:33:10;99508.72;;;14.63;57.36
8039;BME280;4062;49.844;8.120;2023-04-26T10:35:13;99502.53;;;14.62;57.22
8039;BME280;4062;49.844;8.120;2023-04-26T10:37:17;99495.41;;;14.63;57.41
8039;BME280;4062;49.844;8.120;2023-04-26T10:39:20;99489.25;;;14.62;57.41
8039;BME280;4062;49.844;8.120;2023-04-26T10:41:36;99480.34;;;14.63;57.38
8039;BME280;4062;49.844;8.120;2023-04-26T10:43:39;99472.41;;;14.62;57.22
8039;BME280;4062;49.844;8.120;2023-04-26T10:45:47;99474.16;;;14.63;57.30
8039;BME280;4062;49.844;8.120;2023-04-26T10:48:15;99474.16;;;14.63;57.34
8039;BME280;4062;49.844;8.120;2023-04-26T10:50:23;99473.28;;;14.62;57.25
8039;BME280;4062;49.844;8.120;2023-04-26T10:52:24;99469.72;;;14.63;57.44
8039;BME280;4062;49.844;8.120;2023-04-26T10:56:50;99462.59;;;14.64;57.42
8039;BME280;4062;49.844;8.120;2023-04-26T10:59:08;99458.13;;;14.64;57.34
8039;BME280;4062;49.844;8.120;2023-04-26T11:01:16;99457.25;;;14.64;57.24
8039;BME280;4062;49.844;8.120;2023-04-26T11:03:18;99458.13;;;14.64;57.22
8039;BME280;4062;49.844;8.120;2023-04-26T11:05:51;99461.66;;;14.65;57.34
8039;BME280;4062;49.844;8.120;2023-04-26T11:08:15;99459.06;;;14.63;57.25
8039;BME280;4062;49.844;8.120;2023-04-26T11:10:22;99451.09;;;14.63;57.43
8039;BME280;4062;49.844;8.120;2023-04-26T11:12:26;99453.75;;;14.63;57.24
8039;BME280;4062;49.844;8.120;2023-04-26T11:14:28;99455.47;;;14.64;57.24